createdAt,value
2017-12-11T00:00:20.260Z,96840.47
2017-12-11T00:01:25.962Z,96833.88
2017-12-11T00:02:31.723Z,96838.60
2017-12-11T00:03:38.201Z,96840.66
2017-12-11T00:04:43.894Z,96842.03
2017-12-11T00:05:49.598Z,96839.08
2017-12-11T00:06:55.307Z,96831.69
2017-12-11T00:08:01.037Z,96836.35
2017-12-11T00:09:06.496Z,96833.88
2017-12-11T00:10:11.863Z,96832.52
2017-12-11T00:11:17.679Z,96821.29
2017-12-11T00:12:23.075Z,96825.77
2017-12-11T00:13:29.248Z,96836.89
2017-12-11T00:14:34.668Z,96838.34
2017-12-11T00:15:41.124Z,96829.66
2017-12-11T00:16:46.220Z,96829.72
2017-12-11T00:17:51.923Z,96819.92
2017-12-11T00:18:57.640Z,96818.84
2017-12-11T00:20:03.344Z,96805.27
2017-12-11T00:21:08.724Z,96802.89
2017-12-11T00:22:13.778Z,96794.11
2017-12-11T00:23:19.562Z,96792.49
2017-12-11T00:24:25.292Z,96803.73
2017-12-11T00:25:31.801Z,96806.59
2017-12-11T00:26:37.516Z,96805.85
2017-12-11T00:27:42.602Z,96810.95
2017-12-11T00:28:48.307Z,96803.86
2017-12-11T00:29:54.074Z,96816.39
2017-12-11T00:30:59.834Z,96821.97
2017-12-11T00:32:05.537Z,96821.91
2017-12-11T00:33:11.239Z,96825.05
2017-12-11T00:34:17.706Z,96828.48
2017-12-11T00:35:23.444Z,96833.46
2017-12-11T00:36:29.910Z,96835.65
2017-12-11T00:37:35.657Z,96835.34
2017-12-11T00:38:41.558Z,96831.91
2017-12-11T00:39:48.157Z,96840.19
2017-12-11T00:40:53.976Z,96848.53
2017-12-11T00:41:59.826Z,96851.19
2017-12-11T00:43:05.987Z,96851.41
2017-12-11T00:44:11.893Z,96849.98
2017-12-11T00:45:17.271Z,96838.53
2017-12-11T00:46:22.365Z,96836.28
2017-12-11T00:47:28.171Z,96835.52
2017-12-11T00:48:33.947Z,96829.78
2017-12-11T00:49:39.691Z,96826.09
2017-12-11T00:50:45.049Z,96824.23
2017-12-11T00:51:50.440Z,96831.42
2017-12-11T00:52:56.068Z,96833.42
2017-12-11T00:54:01.863Z,96841.00
2017-12-11T00:55:08.368Z,96847.51
2017-12-11T00:56:14.105Z,96839.09
2017-12-11T00:57:19.494Z,96846.42
2017-12-11T00:58:26.010Z,96847.98
2017-12-11T00:59:31.834Z,96845.03
2017-12-11T01:00:37.534Z,96849.34
2017-12-11T01:01:43.794Z,96851.95
2017-12-11T01:02:49.634Z,96853.12
2017-12-11T01:03:55.792Z,96859.97
2017-12-11T01:05:01.624Z,96868.13
2017-12-11T01:06:07.676Z,96864.00
2017-12-11T01:07:13.827Z,96864.00
2017-12-11T01:08:19.671Z,96865.71
2017-12-11T01:09:25.485Z,96869.62
2017-12-11T01:10:30.583Z,96867.84
2017-12-11T01:11:36.385Z,96872.02
2017-12-11T01:12:41.767Z,96869.90
2017-12-11T01:13:47.484Z,96862.70
2017-12-11T01:14:53.208Z,96862.45
2017-12-11T01:15:58.897Z,96877.42
2017-12-11T01:17:04.587Z,96865.44
2017-12-11T01:18:10.286Z,96870.09
2017-12-11T01:19:16.169Z,96868.92
2017-12-11T01:20:22.619Z,96862.99
2017-12-11T01:21:28.767Z,96849.09
2017-12-11T01:22:35.326Z,96860.64
2017-12-11T01:23:41.025Z,96856.27
2017-12-11T01:24:47.128Z,96852.17
2017-12-11T01:25:52.502Z,96858.27
2017-12-11T01:26:58.195Z,96866.13
2017-12-11T01:28:03.885Z,96852.37
2017-12-11T01:29:09.605Z,96864.20
2017-12-11T01:30:15.320Z,96865.59
2017-12-11T01:31:20.170Z,96863.18
2017-12-11T01:32:25.900Z,96860.04
2017-12-11T01:33:31.629Z,96858.10
2017-12-11T01:34:37.532Z,96854.77
2017-12-11T01:35:43.266Z,96863.65
2017-12-11T01:36:48.680Z,96869.80
2017-12-11T01:37:54.441Z,96861.05
2017-12-11T01:39:00.168Z,96857.08
2017-12-11T01:40:05.484Z,96873.63
2017-12-11T01:41:10.563Z,96878.89
2017-12-11T01:42:16.382Z,96880.19
2017-12-11T01:43:21.780Z,96883.61
2017-12-11T01:44:27.156Z,96883.61
2017-12-11T01:45:32.214Z,96888.45
2017-12-11T01:46:37.308Z,96887.31
2017-12-11T01:47:43.796Z,96891.95
2017-12-11T01:48:49.606Z,96892.83
2017-12-11T01:49:55.320Z,96903.70
2017-12-11T01:51:00.351Z,96905.16
2017-12-11T01:52:05.456Z,96906.66
2017-12-11T01:53:11.146Z,96897.31
2017-12-11T01:54:16.877Z,96901.63
2017-12-11T01:55:22.762Z,96906.66
2017-12-11T01:56:28.464Z,96909.48
2017-12-11T01:57:34.206Z,96908.25
2017-12-11T01:58:39.919Z,96916.88
2017-12-11T01:59:45.825Z,96911.46
2017-12-11T02:00:51.527Z,96916.34
2017-12-11T02:01:57.250Z,96920.15
2017-12-11T02:03:02.684Z,96914.63
2017-12-11T02:04:08.392Z,96921.97
2017-12-11T02:05:14.095Z,96922.98
2017-12-11T02:06:19.799Z,96922.70
2017-12-11T02:07:25.504Z,96930.03
2017-12-11T02:08:31.216Z,96923.95
2017-12-11T02:09:37.943Z,96920.53
2017-12-11T02:10:43.521Z,96916.79
2017-12-11T02:11:49.971Z,96919.46
2017-12-11T02:12:56.432Z,96919.46
2017-12-11T02:14:02.202Z,96918.23
2017-12-11T02:15:08.904Z,96924.54
2017-12-11T02:16:13.965Z,96929.59
2017-12-11T02:17:20.457Z,96929.39
2017-12-11T02:18:26.181Z,96931.81
2017-12-11T02:19:32.009Z,96934.06
2017-12-11T02:20:37.070Z,96932.70
2017-12-11T02:21:42.178Z,96926.31
2017-12-11T02:22:47.219Z,96924.80
2017-12-11T02:23:52.421Z,96922.89
2017-12-11T02:24:58.591Z,96924.06
2017-12-11T02:26:03.631Z,96921.23
2017-12-11T02:27:08.677Z,96929.80
2017-12-11T02:28:13.721Z,96924.78
2017-12-11T02:29:18.769Z,96922.34
2017-12-11T02:30:24.474Z,96925.06
2017-12-11T02:31:29.574Z,96920.11
2017-12-11T02:32:34.673Z,96919.03
2017-12-11T02:33:40.512Z,96933.40
2017-12-11T02:34:46.326Z,96927.12
2017-12-11T02:35:52.504Z,96926.00
2017-12-11T02:36:58.124Z,96932.50
2017-12-11T02:38:03.524Z,96930.98
2017-12-11T02:39:09.243Z,96935.86
2017-12-11T02:40:14.269Z,96929.55
2017-12-11T02:41:19.352Z,96937.63
2017-12-11T02:42:24.381Z,96938.16
2017-12-11T02:43:30.509Z,96927.89
2017-12-11T02:44:35.535Z,96926.58
2017-12-11T02:45:40.601Z,96933.56
2017-12-11T02:46:46.427Z,96936.79
2017-12-11T02:47:52.236Z,96928.11
2017-12-11T02:48:57.459Z,96928.11
2017-12-11T02:50:03.157Z,96925.91
2017-12-11T02:51:08.865Z,96928.64
2017-12-11T02:52:14.600Z,96932.06
2017-12-11T02:53:19.634Z,96929.41
2017-12-11T02:54:25.347Z,96930.23
2017-12-11T02:55:31.076Z,96931.30
2017-12-11T02:56:36.772Z,96921.59
2017-12-11T02:57:42.492Z,96925.91
2017-12-11T02:58:48.974Z,96929.65
2017-12-11T02:59:54.705Z,96923.25
2017-12-11T03:01:00.865Z,96924.73
2017-12-11T03:02:06.556Z,96929.23
2017-12-11T03:03:11.961Z,96935.19
2017-12-11T03:04:17.668Z,96939.38
2017-12-11T03:05:24.147Z,96938.08
2017-12-11T03:06:29.829Z,96929.33
2017-12-11T03:07:35.529Z,96944.18
2017-12-11T03:08:41.243Z,96937.81
2017-12-11T03:09:47.726Z,96936.16
2017-12-11T03:10:53.453Z,96946.44
2017-12-11T03:11:59.900Z,96947.39
2017-12-11T03:13:06.364Z,96958.67
2017-12-11T03:14:12.089Z,96950.97
2017-12-11T03:15:17.812Z,96952.39
2017-12-11T03:16:23.526Z,96952.98
2017-12-11T03:17:29.232Z,96955.46
2017-12-11T03:18:34.937Z,96955.59
2017-12-11T03:19:40.832Z,96945.48
2017-12-11T03:20:46.542Z,96942.25
2017-12-11T03:21:53.016Z,96943.77
2017-12-11T03:22:59.476Z,96951.09
2017-12-11T03:24:05.266Z,96953.75
2017-12-11T03:25:10.988Z,96964.67
2017-12-11T03:26:16.667Z,96986.72
2017-12-11T03:27:22.390Z,96985.24
2017-12-11T03:28:28.078Z,96986.59
2017-12-11T03:29:33.817Z,96979.75
2017-12-11T03:30:39.988Z,96986.54
2017-12-11T03:31:45.359Z,96979.83
2017-12-11T03:32:50.385Z,96975.03
2017-12-11T03:33:55.764Z,96989.55
2017-12-11T03:35:01.456Z,96986.19
2017-12-11T03:36:07.207Z,96995.34
2017-12-11T03:37:12.908Z,96998.55
2017-12-11T03:38:18.597Z,96995.95
2017-12-11T03:39:25.086Z,97002.53
2017-12-11T03:40:30.808Z,97002.12
2017-12-11T03:41:37.311Z,97014.61
2017-12-11T03:42:43.046Z,97012.38
2017-12-11T03:43:48.747Z,97015.38
2017-12-11T03:44:55.229Z,97019.63
2017-12-11T03:46:00.966Z,97026.90
2017-12-11T03:47:06.711Z,97025.54
2017-12-11T03:48:12.423Z,97020.13
2017-12-11T03:49:18.976Z,97031.35
2017-12-11T03:50:24.679Z,97033.95
2017-12-11T03:51:30.385Z,97044.58
2017-12-11T03:52:36.104Z,97046.20
2017-12-11T03:53:41.800Z,97057.31
2017-12-11T03:54:47.303Z,97051.98
2017-12-11T03:55:53.239Z,97058.75
2017-12-11T03:56:59.712Z,97068.80
2017-12-11T03:58:05.467Z,97055.89
2017-12-11T03:59:11.164Z,97055.89
2017-12-11T04:00:16.885Z,97059.09
2017-12-11T04:01:22.247Z,97072.91
2017-12-11T04:02:28.729Z,97067.66
2017-12-11T04:03:34.437Z,97068.19
2017-12-11T04:04:41.117Z,97070.91
2017-12-11T04:05:47.599Z,97080.07
2017-12-11T04:06:53.289Z,97072.42
2017-12-11T04:07:59.012Z,97073.78
2017-12-11T04:09:03.992Z,97079.04
2017-12-11T04:10:09.908Z,97082.17
2017-12-11T04:11:15.596Z,97079.58
2017-12-11T04:12:21.202Z,97077.86
2017-12-11T04:13:27.672Z,97079.73
2017-12-11T04:14:33.392Z,97083.63
2017-12-11T04:15:39.860Z,97100.52
2017-12-11T04:16:46.327Z,97102.44
2017-12-11T04:17:52.016Z,97112.91
2017-12-11T04:18:58.484Z,97125.48
2017-12-11T04:20:04.033Z,97112.96
2017-12-11T04:21:10.480Z,97122.36
2017-12-11T04:22:16.173Z,97126.87
2017-12-11T04:23:21.861Z,97134.44
2017-12-11T04:24:27.564Z,97138.34
2017-12-11T04:25:33.294Z,97137.98
2017-12-11T04:26:38.990Z,97140.25
2017-12-11T04:27:45.267Z,97142.27
2017-12-11T04:28:51.726Z,97158.01
2017-12-11T04:29:58.217Z,97153.05
2017-12-11T04:31:03.933Z,97161.94
2017-12-11T04:32:09.628Z,97158.03
2017-12-11T04:33:16.838Z,97159.75
2017-12-11T04:34:23.353Z,97161.67
2017-12-11T04:35:29.284Z,97170.51
2017-12-11T04:36:35.005Z,97167.38
2017-12-11T04:37:40.504Z,97185.78
2017-12-11T04:38:46.213Z,97179.58
2017-12-11T04:39:51.923Z,97190.59
2017-12-11T04:40:57.622Z,97190.00
2017-12-11T04:42:04.384Z,97188.59
2017-12-11T04:43:10.072Z,97190.44
2017-12-11T04:44:15.764Z,97194.13
2017-12-11T04:45:21.479Z,97192.66
2017-12-11T04:46:27.192Z,97201.41
2017-12-11T04:47:32.935Z,97205.31
2017-12-11T04:48:38.700Z,97196.44
2017-12-11T04:49:44.416Z,97205.39
2017-12-11T04:50:50.115Z,97210.36
2017-12-11T04:51:56.573Z,97213.22
2017-12-11T04:53:03.068Z,97203.66
2017-12-11T04:54:08.774Z,97206.80
2017-12-11T04:55:15.231Z,97213.38
2017-12-11T04:56:21.487Z,97210.15
2017-12-11T04:57:27.944Z,97220.91
2017-12-11T04:58:34.433Z,97211.63
2017-12-11T04:59:40.137Z,97219.98
2017-12-11T05:00:46.651Z,97224.25
2017-12-11T05:01:52.391Z,97220.81
2017-12-11T05:02:58.094Z,97227.20
2017-12-11T05:04:04.576Z,97226.91
2017-12-11T05:05:09.944Z,97217.38
2017-12-11T05:06:15.340Z,97223.66
2017-12-11T05:07:21.047Z,97221.41
2017-12-11T05:08:26.724Z,97223.06
2017-12-11T05:09:32.593Z,97233.00
2017-12-11T05:10:38.608Z,97233.30
2017-12-11T05:11:44.322Z,97232.67
2017-12-11T05:12:50.060Z,97235.48
2017-12-11T05:13:55.837Z,97230.05
2017-12-11T05:15:01.632Z,97232.45
2017-12-11T05:16:07.402Z,97221.39
2017-12-11T05:17:13.194Z,97225.94
2017-12-11T05:18:18.908Z,97229.02
2017-12-11T05:19:24.597Z,97224.81
2017-12-11T05:20:30.388Z,97227.84
2017-12-11T05:21:35.431Z,97225.05
2017-12-11T05:22:41.139Z,97238.48
2017-12-11T05:23:46.834Z,97242.30
2017-12-11T05:24:52.553Z,97245.38
2017-12-11T05:25:58.279Z,97246.67
2017-12-11T05:27:03.999Z,97242.09
2017-12-11T05:28:09.769Z,97243.34
2017-12-11T05:29:15.508Z,97239.22
2017-12-11T05:30:21.222Z,97242.65
2017-12-11T05:31:27.075Z,97246.73
2017-12-11T05:32:32.943Z,97255.56
2017-12-11T05:33:38.639Z,97257.58
2017-12-11T05:34:45.089Z,97260.44
2017-12-11T05:35:51.078Z,97256.77
2017-12-11T05:36:56.183Z,97256.91
2017-12-11T05:38:02.009Z,97260.69
2017-12-11T05:39:08.698Z,97256.73
2017-12-11T05:40:14.426Z,97253.14
2017-12-11T05:41:19.799Z,97250.89
2017-12-11T05:42:25.531Z,97255.80
2017-12-11T05:43:31.239Z,97256.09
2017-12-11T05:44:36.948Z,97252.90
2017-12-11T05:45:43.645Z,97250.41
2017-12-11T05:46:49.360Z,97244.67
2017-12-11T05:47:55.844Z,97248.99
2017-12-11T05:49:01.616Z,97248.16
2017-12-11T05:50:07.333Z,97252.67
2017-12-11T05:51:13.046Z,97252.17
2017-12-11T05:52:19.513Z,97259.51
2017-12-11T05:53:26.023Z,97255.13
2017-12-11T05:54:31.729Z,97248.86
2017-12-11T05:55:37.558Z,97263.00
2017-12-11T05:56:44.071Z,97261.82
2017-12-11T05:57:50.014Z,97263.13
2017-12-11T05:58:55.828Z,97274.72
2017-12-11T06:00:01.705Z,97278.09
2017-12-11T06:01:07.657Z,97281.29
2017-12-11T06:02:13.888Z,97289.27
2017-12-11T06:03:19.810Z,97298.23
2017-12-11T06:04:25.542Z,97300.66
2017-12-11T06:05:31.469Z,97304.53
2017-12-11T06:06:37.963Z,97311.95
2017-12-11T06:07:43.989Z,97312.50
2017-12-11T06:08:49.766Z,97312.86
2017-12-11T06:09:55.505Z,97318.98
2017-12-11T06:11:01.265Z,97321.30
2017-12-11T06:12:07.073Z,97327.02
2017-12-11T06:13:12.777Z,97332.81
2017-12-11T06:14:18.308Z,97333.06
2017-12-11T06:15:24.049Z,97327.32
2017-12-11T06:16:30.716Z,97326.44
2017-12-11T06:17:36.898Z,97324.72
2017-12-11T06:18:43.380Z,97326.65
2017-12-11T06:19:49.223Z,97329.31
2017-12-11T06:20:54.976Z,97327.78
2017-12-11T06:22:00.861Z,97334.50
2017-12-11T06:23:06.620Z,97323.97
2017-12-11T06:24:12.863Z,97326.48
2017-12-11T06:25:18.621Z,97320.23
2017-12-11T06:26:25.117Z,97318.70
2017-12-11T06:27:30.852Z,97320.75
2017-12-11T06:28:37.353Z,97329.88
2017-12-11T06:29:43.241Z,97326.93
2017-12-11T06:30:49.065Z,97334.09
2017-12-11T06:31:54.870Z,97338.26
2017-12-11T06:33:01.489Z,97325.39
2017-12-11T06:34:07.288Z,97333.55
2017-12-11T06:35:13.277Z,97331.64
2017-12-11T06:36:20.080Z,97332.06
2017-12-11T06:37:27.425Z,97342.30
2017-12-11T06:38:34.688Z,97345.38
2017-12-11T06:39:41.942Z,97342.63
2017-12-11T06:40:48.380Z,97353.93
2017-12-11T06:41:54.286Z,97359.50
2017-12-11T06:42:59.995Z,97357.19
2017-12-11T06:44:06.298Z,97365.83
2017-12-11T06:45:12.119Z,97365.36
2017-12-11T06:46:18.779Z,97363.96
2017-12-11T06:47:24.502Z,97367.81
2017-12-11T06:48:30.313Z,97364.37
2017-12-11T06:49:36.039Z,97364.25
2017-12-11T06:50:41.773Z,97362.89
2017-12-11T06:51:47.537Z,97364.19
2017-12-11T06:52:54.065Z,97370.48
2017-12-11T06:54:00.503Z,97376.17
2017-12-11T06:55:06.323Z,97377.78
2017-12-11T06:56:12.208Z,97370.78
2017-12-11T06:57:18.000Z,97371.33
2017-12-11T06:58:23.902Z,97363.92
2017-12-11T06:59:29.687Z,97363.62
2017-12-11T07:00:35.450Z,97360.80
2017-12-11T07:01:41.144Z,97362.75
2017-12-11T07:02:47.731Z,97361.77
2017-12-11T07:03:53.528Z,97358.45
2017-12-11T07:05:00.082Z,97353.91
2017-12-11T07:06:05.790Z,97354.14
2017-12-11T07:07:11.492Z,97354.08
2017-12-11T07:08:17.253Z,97354.55
2017-12-11T07:09:23.765Z,97347.75
2017-12-11T07:10:29.493Z,97353.97
2017-12-11T07:11:35.189Z,97343.07
2017-12-11T07:12:41.655Z,97341.92
2017-12-11T07:13:48.141Z,97340.33
2017-12-11T07:14:53.926Z,97341.73
2017-12-11T07:15:59.666Z,97345.14
2017-12-11T07:17:05.372Z,97347.26
2017-12-11T07:18:11.178Z,97350.61
2017-12-11T07:19:17.640Z,97348.13
2017-12-11T07:20:24.128Z,97352.98
2017-12-11T07:21:29.861Z,97357.45
2017-12-11T07:22:35.620Z,97365.04
2017-12-11T07:23:41.359Z,97370.54
2017-12-11T07:24:47.892Z,97371.70
2017-12-11T07:25:54.355Z,97376.25
2017-12-11T07:27:00.088Z,97368.58
2017-12-11T07:28:06.604Z,97369.02
2017-12-11T07:29:12.320Z,97373.56
2017-12-11T07:30:18.023Z,97371.64
2017-12-11T07:31:24.499Z,97376.73
2017-12-11T07:32:30.310Z,97377.08
2017-12-11T07:33:36.023Z,97380.52
2017-12-11T07:34:41.755Z,97380.36
2017-12-11T07:35:47.477Z,97376.39
2017-12-11T07:36:53.195Z,97374.97
2017-12-11T07:37:59.050Z,97361.31
2017-12-11T07:39:04.247Z,97358.64
2017-12-11T07:40:09.968Z,97357.57
2017-12-11T07:41:15.693Z,97360.03
2017-12-11T07:42:22.163Z,97368.14
2017-12-11T07:43:27.888Z,97376.02
2017-12-11T07:44:34.354Z,97377.47
2017-12-11T07:45:40.070Z,97374.72
2017-12-11T07:46:46.593Z,97372.05
2017-12-11T07:47:52.284Z,97375.12
2017-12-11T07:48:58.799Z,97374.72
2017-12-11T07:50:04.510Z,97375.66
2017-12-11T07:51:10.206Z,97380.55
2017-12-11T07:52:15.925Z,97376.08
2017-12-11T07:53:21.836Z,97369.91
2017-12-11T07:54:27.613Z,97368.55
2017-12-11T07:55:33.325Z,97377.61
2017-12-11T07:56:39.050Z,97382.34
2017-12-11T07:57:44.739Z,97390.11
2017-12-11T07:58:50.492Z,97387.83
2017-12-11T07:59:56.236Z,97382.38
2017-12-11T08:01:01.945Z,97381.95
2017-12-11T08:02:07.664Z,97379.61
2017-12-11T08:03:13.359Z,97389.50
2017-12-11T08:04:19.071Z,97385.65
2017-12-11T08:05:24.802Z,97388.34
2017-12-11T08:06:30.569Z,97389.97
2017-12-11T08:07:36.297Z,97379.77
2017-12-11T08:08:42.025Z,97390.55
2017-12-11T08:09:47.747Z,97405.30
2017-12-11T08:10:53.466Z,97411.88
2017-12-11T08:11:59.185Z,97415.91
2017-12-11T08:13:04.872Z,97415.31
2017-12-11T08:14:10.597Z,97416.67
2017-12-11T08:15:16.380Z,97407.48
2017-12-11T08:16:22.099Z,97410.41
2017-12-11T08:17:27.875Z,97414.33
2017-12-11T08:18:33.581Z,97418.33
2017-12-11T08:19:39.272Z,97419.95
2017-12-11T08:20:44.979Z,97419.95
2017-12-11T08:21:50.718Z,97429.02
2017-12-11T08:22:56.444Z,97416.34
2017-12-11T08:24:02.179Z,97416.63
2017-12-11T08:25:07.888Z,97415.23
2017-12-11T08:26:14.391Z,97413.87
2017-12-11T08:27:19.805Z,97412.56
2017-12-11T08:28:25.553Z,97422.11
2017-12-11T08:29:31.287Z,97417.99
2017-12-11T08:30:37.079Z,97425.54
2017-12-11T08:31:42.884Z,97418.48
2017-12-11T08:32:48.703Z,97415.50
2017-12-11T08:33:54.486Z,97413.02
2017-12-11T08:35:00.493Z,97412.27
2017-12-11T08:36:07.178Z,97406.42
2017-12-11T08:37:12.942Z,97405.89
2017-12-11T08:38:18.906Z,97406.59
2017-12-11T08:39:24.611Z,97406.30
2017-12-11T08:40:30.455Z,97408.38
2017-12-11T08:41:36.212Z,97412.91
2017-12-11T08:42:42.012Z,97403.78
2017-12-11T08:43:48.510Z,97408.98
2017-12-11T08:44:54.209Z,97404.88
2017-12-11T08:45:59.718Z,97401.98
2017-12-11T08:47:05.419Z,97399.78
2017-12-11T08:48:11.133Z,97409.03
2017-12-11T08:49:16.956Z,97409.39
2017-12-11T08:50:23.540Z,97409.56
2017-12-11T08:51:29.282Z,97406.05
2017-12-11T08:52:34.974Z,97418.20
2017-12-11T08:53:41.228Z,97419.77
2017-12-11T08:54:46.752Z,97425.58
2017-12-11T08:55:52.454Z,97427.69
2017-12-11T08:56:58.145Z,97431.18
2017-12-11T08:58:03.852Z,97424.55
2017-12-11T08:59:09.729Z,97423.77
2017-12-11T09:00:15.579Z,97419.13
2017-12-11T09:01:21.285Z,97420.63
2017-12-11T09:02:26.967Z,97421.55
2017-12-11T09:03:33.585Z,97426.73
2017-12-11T09:04:39.353Z,97429.50
2017-12-11T09:05:45.150Z,97434.41
2017-12-11T09:06:50.830Z,97437.59
2017-12-11T09:07:56.578Z,97441.51
2017-12-11T09:09:02.274Z,97439.87
2017-12-11T09:10:07.960Z,97441.19
2017-12-11T09:11:13.783Z,97428.86
2017-12-11T09:12:19.615Z,97435.18
2017-12-11T09:13:25.480Z,97431.08
2017-12-11T09:14:31.269Z,97433.27
2017-12-11T09:15:37.052Z,97436.95
2017-12-11T09:16:42.867Z,97434.22
2017-12-11T09:17:48.769Z,97426.20
2017-12-11T09:18:54.576Z,97422.89
2017-12-11T09:20:00.443Z,97414.17
2017-12-11T09:21:06.171Z,97402.83
2017-12-11T09:22:12.245Z,97401.52
2017-12-11T09:23:17.936Z,97397.35
2017-12-11T09:24:23.633Z,97395.50
2017-12-11T09:25:29.356Z,97391.96
2017-12-11T09:26:35.112Z,97389.97
2017-12-11T09:27:40.833Z,97382.85
2017-12-11T09:28:46.548Z,97382.49
2017-12-11T09:29:52.313Z,97376.56
2017-12-11T09:30:58.103Z,97373.77
2017-12-11T09:32:04.051Z,97373.09
2017-12-11T09:33:09.789Z,97375.69
2017-12-11T09:34:15.501Z,97381.05
2017-12-11T09:35:21.231Z,97392.55
2017-12-11T09:36:26.953Z,97385.94
2017-12-11T09:37:32.667Z,97394.23
2017-12-11T09:38:38.455Z,97391.27
2017-12-11T09:39:44.138Z,97391.11
2017-12-11T09:40:49.567Z,97394.43
2017-12-11T09:41:55.273Z,97402.28
2017-12-11T09:43:00.657Z,97407.22
2017-12-11T09:44:06.404Z,97404.16
2017-12-11T09:45:12.104Z,97403.85
2017-12-11T09:46:18.589Z,97398.66
2017-12-11T09:47:24.285Z,97400.75
2017-12-11T09:48:30.016Z,97402.27
2017-12-11T09:49:35.986Z,97400.28
2017-12-11T09:50:41.817Z,97407.67
2017-12-11T09:51:47.532Z,97411.05
2017-12-11T09:52:54.077Z,97407.67
2017-12-11T09:53:59.821Z,97407.52
2017-12-11T09:55:05.562Z,97404.04
2017-12-11T09:56:11.273Z,97404.45
2017-12-11T09:57:17.033Z,97401.95
2017-12-11T09:58:22.912Z,97401.14
2017-12-11T09:59:28.839Z,97407.95
2017-12-11T10:00:34.552Z,97404.68
2017-12-11T10:01:40.260Z,97403.63
2017-12-11T10:02:45.625Z,97402.39
2017-12-11T10:03:51.355Z,97409.10
2017-12-11T10:04:57.852Z,97409.05
2017-12-11T10:06:05.303Z,97408.11
2017-12-11T10:07:11.194Z,97403.69
2017-12-11T10:08:16.920Z,97405.34
2017-12-11T10:09:23.167Z,97400.31
2017-12-11T10:10:28.886Z,97397.03
2017-12-11T10:11:34.630Z,97395.31
2017-12-11T10:12:40.408Z,97404.82
2017-12-11T10:13:46.110Z,97395.59
2017-12-11T10:14:51.879Z,97399.68
2017-12-11T10:15:57.587Z,97396.31
2017-12-11T10:17:04.095Z,97391.47
2017-12-11T10:18:09.798Z,97390.86
2017-12-11T10:19:14.853Z,97386.80
2017-12-11T10:20:20.611Z,97386.37
2017-12-11T10:21:26.328Z,97379.16
2017-12-11T10:22:32.069Z,97381.02
2017-12-11T10:23:37.863Z,97382.48
2017-12-11T10:24:43.545Z,97384.40
2017-12-11T10:25:49.248Z,97386.33
2017-12-11T10:26:55.042Z,97384.03
2017-12-11T10:28:00.804Z,97382.16
2017-12-11T10:29:06.568Z,97369.91
2017-12-11T10:30:12.615Z,97365.80
2017-12-11T10:31:18.388Z,97373.28
2017-12-11T10:32:24.205Z,97366.90
2017-12-11T10:33:29.965Z,97360.30
2017-12-11T10:34:35.694Z,97351.36
2017-12-11T10:35:41.483Z,97352.50
2017-12-11T10:36:47.767Z,97348.54
2017-12-11T10:37:53.493Z,97350.17
2017-12-11T10:38:59.253Z,97332.53
2017-12-11T10:40:05.034Z,97333.94
2017-12-11T10:41:11.501Z,97331.13
2017-12-11T10:42:18.029Z,97323.17
2017-12-11T10:43:24.511Z,97323.29
2017-12-11T10:44:31.195Z,97315.22
2017-12-11T10:45:37.783Z,97306.30
2017-12-11T10:46:43.612Z,97312.02
2017-12-11T10:47:49.320Z,97312.89
2017-12-11T10:48:55.828Z,97318.23
2017-12-11T10:50:01.599Z,97322.70
2017-12-11T10:51:07.313Z,97319.59
2017-12-11T10:52:13.026Z,97315.16
2017-12-11T10:53:18.760Z,97316.92
2017-12-11T10:54:24.458Z,97316.33
2017-12-11T10:55:30.269Z,97320.99
2017-12-11T10:56:36.032Z,97329.93
2017-12-11T10:57:41.770Z,97329.09
2017-12-11T10:58:47.546Z,97328.27
2017-12-11T10:59:54.162Z,97328.69
2017-12-11T11:00:59.947Z,97325.62
2017-12-11T11:02:06.422Z,97318.65
2017-12-11T11:03:12.196Z,97310.59
2017-12-11T11:04:17.942Z,97307.06
2017-12-11T11:05:23.702Z,97300.88
2017-12-11T11:06:30.276Z,97301.52
2017-12-11T11:07:36.802Z,97312.06
2017-12-11T11:08:42.499Z,97316.33
2017-12-11T11:09:48.212Z,97312.27
2017-12-11T11:10:54.692Z,97300.48
2017-12-11T11:12:00.501Z,97291.23
2017-12-11T11:13:06.206Z,97298.48
2017-12-11T11:14:11.938Z,97299.36
2017-12-11T11:15:17.651Z,97287.98
2017-12-11T11:16:23.361Z,97299.73
2017-12-11T11:17:29.119Z,97303.98
2017-12-11T11:18:36.061Z,97294.48
2017-12-11T11:19:42.900Z,97305.12
2017-12-11T11:20:48.699Z,97304.81
2017-12-11T11:21:54.606Z,97297.38
2017-12-11T11:23:00.471Z,97293.44
2017-12-11T11:24:06.104Z,97290.26
2017-12-11T11:25:12.622Z,97285.95
2017-12-11T11:26:18.424Z,97286.89
2017-12-11T11:27:24.939Z,97290.06
2017-12-11T11:28:30.702Z,97283.93
2017-12-11T11:29:37.225Z,97278.43
2017-12-11T11:30:43.144Z,97273.90
2017-12-11T11:31:48.882Z,97277.59
2017-12-11T11:32:54.653Z,97281.95
2017-12-11T11:34:00.409Z,97278.48
2017-12-11T11:35:05.884Z,97287.98
2017-12-11T11:36:12.006Z,97273.05
2017-12-11T11:37:17.795Z,97274.81
2017-12-11T11:38:24.288Z,97269.00
2017-12-11T11:39:30.039Z,97259.59
2017-12-11T11:40:35.765Z,97260.77
2017-12-11T11:41:41.503Z,97264.49
2017-12-11T11:42:47.228Z,97261.34
2017-12-11T11:43:53.627Z,97254.48
2017-12-11T11:44:59.363Z,97254.53
2017-12-11T11:46:05.351Z,97250.33
2017-12-11T11:47:11.099Z,97249.50
2017-12-11T11:48:16.915Z,97251.58
2017-12-11T11:49:22.681Z,97247.90
2017-12-11T11:50:29.270Z,97251.21
2017-12-11T11:51:35.795Z,97246.64
2017-12-11T11:52:41.569Z,97235.66
2017-12-11T11:53:47.357Z,97234.48
2017-12-11T11:54:53.087Z,97224.91
2017-12-11T11:55:58.654Z,97207.92
2017-12-11T11:57:04.104Z,97208.75
2017-12-11T11:58:10.014Z,97209.58
2017-12-11T11:59:15.490Z,97205.29
2017-12-11T12:00:20.555Z,97200.82
2017-12-11T12:01:25.781Z,97197.16
2017-12-11T12:02:31.557Z,97206.38
2017-12-11T12:03:37.288Z,97206.70
2017-12-11T12:04:43.138Z,97210.22
2017-12-11T12:05:48.913Z,97203.03
2017-12-11T12:06:54.719Z,97203.13
2017-12-11T12:08:00.636Z,97202.59
2017-12-11T12:09:05.815Z,97206.31
2017-12-11T12:10:11.665Z,97206.78
2017-12-11T12:11:17.486Z,97197.20
2017-12-11T12:12:22.956Z,97195.48
2017-12-11T12:13:29.478Z,97196.84
2017-12-11T12:14:35.365Z,97195.89
2017-12-11T12:15:41.274Z,97192.09
2017-12-11T12:16:48.028Z,97182.41
2017-12-11T12:17:54.108Z,97165.01
2017-12-11T12:19:00.220Z,97160.02
2017-12-11T12:20:06.020Z,97160.32
2017-12-11T12:21:12.541Z,97166.25
2017-12-11T12:22:18.343Z,97173.28
2017-12-11T12:23:24.285Z,97170.11
2017-12-11T12:24:29.793Z,97169.12
2017-12-11T12:25:35.525Z,97168.74
2017-12-11T12:26:41.354Z,97166.41
2017-12-11T12:27:47.152Z,97177.28
2017-12-11T12:28:52.940Z,97167.69
2017-12-11T12:29:58.553Z,97161.52
2017-12-11T12:31:04.099Z,97158.94
2017-12-11T12:32:09.949Z,97161.67
2017-12-11T12:33:15.385Z,97156.75
2017-12-11T12:34:21.245Z,97147.68
2017-12-11T12:35:27.792Z,97147.73
2017-12-11T12:36:34.393Z,97145.34
2017-12-11T12:37:40.132Z,97137.64
2017-12-11T12:38:46.558Z,97133.27
2017-12-11T12:39:53.068Z,97133.50
2017-12-11T12:40:58.448Z,97133.00
2017-12-11T12:42:04.788Z,97132.70
2017-12-11T12:43:10.673Z,97128.54
2017-12-11T12:44:16.428Z,97124.91
2017-12-11T12:45:22.260Z,97126.30
2017-12-11T12:46:27.864Z,97127.17
2017-12-11T12:47:33.817Z,97114.12
2017-12-11T12:48:40.312Z,97115.89
2017-12-11T12:49:46.049Z,97107.85
2017-12-11T12:50:51.810Z,97113.41
2017-12-11T12:51:57.626Z,97107.41
2017-12-11T12:53:03.372Z,97103.59